Time,TemperatureF,DewpointF,PressureIn,WindDirection,WindDirectionDegrees,WindSpeedMPH,WindSpeedGustMPH,Humidity,HourlyPrecipIn,Conditions,Clouds,dailyrainin,SoftwareType,DateUTC
2013-05-11 00:01:00,49.0,47.6,29.86,North,355,2.0,2.0,95,0.00,,,0.00,Wunderground v.1.15,2013-05-11 04:01:00,
2013-05-11 00:05:00,48.9,47.5,29.86,NW,321,1.0,2.0,95,0.00,,,0.01,Wunderground v.1.15,2013-05-11 04:05:00,
2013-05-11 00:06:00,48.8,47.4,29.86,NW,321,1.0,2.0,95,0.15,,,0.02,Wunderground v.1.15,2013-05-11 04:06:00,
2013-05-11 00:09:00,48.8,47.7,29.86,NNW,341,1.0,4.0,96,0.15,,,0.02,Wunderground v.1.15,2013-05-11 04:09:00,
2013-05-11 00:14:00,48.5,47.4,29.86,NW,316,2.0,6.0,96,0.09,,,0.03,Wunderground v.1.15,2013-05-11 04:14:00,
2013-05-11 00:20:00,48.2,46.8,29.86,North,355,2.0,2.0,95,0.48,,,0.07,Wunderground v.1.15,2013-05-11 04:20:00,
2013-05-11 00:26:00,47.8,46.7,29.86,NNW,333,2.0,4.0,96,0.17,,,0.09,Wunderground v.1.15,2013-05-11 04:26:00,
2013-05-11 00:32:00,47.4,46.3,29.87,NW,305,2.0,2.0,96,0.08,,,0.09,Wunderground v.1.15,2013-05-11 04:32:00,
2013-05-11 00:37:00,47.2,46.1,29.86,WNW,299,1.0,3.0,96,0.05,,,0.09,Wunderground v.1.15,2013-05-11 04:37:00,
2013-05-11 00:43:00,47.2,46.1,29.87,WNW,299,0.0,1.0,96,0.00,,,0.09,Wunderground v.1.15,2013-05-11 04:43:00,
2013-05-11 00:49:00,47.2,46.1,29.87,West,281,0.0,1.0,96,0.00,,,0.09,Wunderground v.1.15,2013-05-11 04:49:00,
2013-05-11 00:55:00,47.0,45.9,29.87,North,5,1.0,3.0,96,0.00,,,0.09,Wunderground v.1.15,2013-05-11 04:55:00,
2013-05-11 01:01:00,46.9,45.8,29.87,NW,313,2.0,9.0,96,0.00,,,0.09,Wunderground v.1.15,2013-05-11 05:01:00,
2013-05-11 01:06:00,46.7,45.6,29.87,NNW,333,2.0,9.0,96,0.00,,,0.09,Wunderground v.1.15,2013-05-11 05:06:00,
2013-05-11 01:12:00,46.3,45.2,29.87,NW,323,2.0,9.0,96,0.00,,,0.09,Wunderground v.1.15,2013-05-11 05:12:00,
2013-05-11 01:18:00,46.1,45.0,29.87,NNW,344,2.0,9.0,96,0.00,,,0.09,Wunderground v.1.15,2013-05-11 05:18:00,
2013-05-11 01:24:00,45.8,44.7,29.87,NNW,331,3.0,9.0,96,0.00,,,0.09,Wunderground v.1.15,2013-05-11 05:24:00,
2013-05-11 01:29:00,45.6,44.5,29.87,NW,320,2.0,2.0,96,0.00,,,0.09,Wunderground v.1.15,2013-05-11 05:29:00,
2013-05-11 01:35:00,45.5,44.4,29.87,NNW,347,1.0,9.0,96,0.00,,,0.09,Wunderground v.1.15,2013-05-11 05:35:00,
2013-05-11 01:41:00,45.3,44.2,29.88,West,270,2.0,9.0,96,0.00,,,0.09,Wunderground v.1.15,2013-05-11 05:41:00,
2013-05-11 01:46:00,45.1,44.0,29.88,NNW,331,3.0,9.0,96,0.00,,,0.09,Wunderground v.1.15,2013-05-11 05:46:00,
2013-05-11 01:52:00,44.9,43.8,29.88,NW,312,3.0,9.0,96,0.00,,,0.09,Wunderground v.1.15,2013-05-11 05:52:00,
2013-05-11 01:58:00,44.8,44.0,29.89,NW,326,2.0,9.0,97,0.00,,,0.09,Wunderground v.1.15,2013-05-11 05:58:00,
2013-05-11 02:04:00,44.7,43.9,29.89,WNW,297,3.0,9.0,97,0.00,,,0.09,Wunderground v.1.15,2013-05-11 06:04:00,
2013-05-11 02:09:00,44.6,43.8,29.89,West,278,3.0,9.0,97,0.00,,,0.09,Wunderground v.1.15,2013-05-11 06:09:00,
2013-05-11 02:15:00,44.6,43.8,29.89,West,261,3.0,9.0,97,0.00,,,0.09,Wunderground v.1.15,2013-05-11 06:15:00,
2013-05-11 02:21:00,44.5,43.7,29.89,NW,313,2.0,9.0,97,0.00,,,0.09,Wunderground v.1.15,2013-05-11 06:21:00,
2013-05-11 02:27:00,44.5,43.7,29.89,NW,323,2.0,9.0,97,0.00,,,0.09,Wunderground v.1.15,2013-05-11 06:27:00,
2013-05-11 02:32:00,44.4,43.6,29.89,NNW,342,3.0,9.0,97,0.00,,,0.09,Wunderground v.1.15,2013-05-11 06:32:00,
2013-05-11 02:38:00,44.3,43.5,29.89,NNW,334,3.0,9.0,97,0.00,,,0.09,Wunderground v.1.15,2013-05-11 06:38:00,
2013-05-11 02:44:00,44.2,43.4,29.90,WSW,252,3.0,9.0,97,0.00,,,0.09,Wunderground v.1.15,2013-05-11 06:44:00,
2013-05-11 02:50:00,44.1,43.3,29.89,WSW,250,2.0,3.0,97,0.00,,,0.09,Wunderground v.1.15,2013-05-11 06:50:00,
2013-05-11 02:55:00,44.1,43.3,29.88,West,261,2.0,9.0,97,0.00,,,0.09,Wunderground v.1.15,2013-05-11 06:55:00,
2013-05-11 03:01:00,43.8,43.0,29.90,WSW,238,4.0,9.0,97,0.00,,,0.09,Wunderground v.1.15,2013-05-11 07:01:00,
2013-05-11 03:07:00,43.7,42.9,29.89,West,263,3.0,9.0,97,0.00,,,0.09,Wunderground v.1.15,2013-05-11 07:07:00,
2013-05-11 03:12:00,43.7,42.9,29.89,NW,311,2.0,9.0,97,0.00,,,0.09,Wunderground v.1.15,2013-05-11 07:12:00,
2013-05-11 03:18:00,43.6,42.8,29.89,West,265,2.0,9.0,97,0.00,,,0.09,Wunderground v.1.15,2013-05-11 07:18:00,
2013-05-11 03:24:00,43.5,42.7,29.90,WNW,300,3.0,9.0,97,0.00,,,0.09,Wunderground v.1.15,2013-05-11 07:24:00,
2013-05-11 03:30:00,43.4,42.6,29.90,NW,323,3.0,9.0,97,0.00,,,0.09,Wunderground v.1.15,2013-05-11 07:30:00,
2013-05-11 03:35:00,43.3,42.5,29.89,WSW,251,2.0,9.0,97,0.00,,,0.09,Wunderground v.1.15,2013-05-11 07:35:00,
2013-05-11 03:41:00,43.4,42.6,29.89,WNW,288,2.0,9.0,97,0.00,,,0.09,Wunderground v.1.15,2013-05-11 07:41:00,
2013-05-11 03:47:00,43.3,42.5,29.89,WNW,291,2.0,9.0,97,0.00,,,0.09,Wunderground v.1.15,2013-05-11 07:47:00,
2013-05-11 03:53:00,43.2,42.4,29.89,WNW,298,3.0,9.0,97,0.00,,,0.09,Wunderground v.1.15,2013-05-11 07:53:00,
2013-05-11 03:58:00,43.1,42.3,29.90,West,281,2.0,9.0,97,0.00,,,0.09,Wunderground v.1.15,2013-05-11 07:58:00,
2013-05-11 04:04:00,43.1,42.3,29.90,NW,323,1.0,9.0,97,0.00,,,0.09,Wunderground v.1.15,2013-05-11 08:04:00,
2013-05-11 04:10:00,43.1,42.3,29.90,West,263,3.0,9.0,97,0.00,,,0.09,Wunderground v.1.15,2013-05-11 08:10:00,
2013-05-11 04:16:00,43.0,42.2,29.90,West,270,3.0,11.0,97,0.00,,,0.09,Wunderground v.1.15,2013-05-11 08:16:00,
2013-05-11 04:22:00,42.8,42.0,29.89,West,261,3.0,9.0,97,0.00,,,0.09,Wunderground v.1.15,2013-05-11 08:22:00,
2013-05-11 04:28:00,42.8,42.0,29.90,West,265,2.0,9.0,97,0.00,,,0.09,Wunderground v.1.15,2013-05-11 08:28:00,
2013-05-11 04:33:00,42.8,42.0,29.91,West,279,2.0,9.0,97,0.00,,,0.09,Wunderground v.1.15,2013-05-11 08:33:00,
2013-05-11 04:39:00,42.7,41.9,29.91,NNW,344,2.0,2.0,97,0.00,,,0.09,Wunderground v.1.15,2013-05-11 08:39:00,
2013-05-11 04:45:00,42.6,41.8,29.91,NW,319,2.0,9.0,97,0.00,,,0.09,Wunderground v.1.15,2013-05-11 08:45:00,
2013-05-11 04:51:00,42.6,41.8,29.91,NW,304,2.0,9.0,97,0.00,,,0.09,Wunderground v.1.15,2013-05-11 08:51:00,
2013-05-11 04:57:00,42.6,41.8,29.91,West,276,2.0,9.0,97,0.00,,,0.09,Wunderground v.1.15,2013-05-11 08:57:00,
2013-05-11 05:02:00,42.5,41.7,29.91,West,271,3.0,9.0,97,0.00,,,0.09,Wunderground v.1.15,2013-05-11 09:02:00,
2013-05-11 05:08:00,42.5,41.7,29.91,West,269,3.0,9.0,97,0.00,,,0.09,Wunderground v.1.15,2013-05-11 09:08:00,
2013-05-11 05:14:00,42.5,41.7,29.91,WSW,245,2.0,9.0,97,0.00,,,0.09,Wunderground v.1.15,2013-05-11 09:14:00,
2013-05-11 05:20:00,42.4,41.6,29.91,WSW,252,2.0,9.0,97,0.00,,,0.09,Wunderground v.1.15,2013-05-11 09:20:00,
2013-05-11 05:26:00,42.4,41.6,29.92,West,279,2.0,9.0,97,0.00,,,0.09,Wunderground v.1.15,2013-05-11 09:26:00,
2013-05-11 05:32:00,42.3,41.5,29.91,NNW,331,2.0,9.0,97,0.00,,,0.09,Wunderground v.1.15,2013-05-11 09:32:00,
2013-05-11 05:38:00,42.3,41.8,29.91,NNW,347,1.0,9.0,98,0.00,,,0.09,Wunderground v.1.15,2013-05-11 09:38:00,
2013-05-11 05:43:00,42.3,41.8,29.91,NNW,336,2.0,9.0,98,0.00,,,0.09,Wunderground v.1.15,2013-05-11 09:43:00,
2013-05-11 05:49:00,42.3,41.8,29.92,NNW,331,2.0,9.0,98,0.00,,,0.09,Wunderground v.1.15,2013-05-11 09:49:00,
2013-05-11 05:55:00,42.3,41.8,29.91,NW,312,2.0,9.0,98,0.00,,,0.09,Wunderground v.1.15,2013-05-11 09:55:00,
2013-05-11 06:01:00,42.3,41.8,29.91,North,355,2.0,2.0,98,0.00,,,0.09,Wunderground v.1.15,2013-05-11 10:01:00,
2013-05-11 06:07:00,42.3,41.8,29.91,NW,314,2.0,4.0,98,0.00,,,0.09,Wunderground v.1.15,2013-05-11 10:07:00,
2013-05-11 06:13:00,42.3,41.8,29.92,West,268,2.0,2.0,98,0.00,,,0.09,Wunderground v.1.15,2013-05-11 10:13:00,
2013-05-11 06:19:00,42.3,41.8,29.92,North,355,1.0,7.0,98,0.00,,,0.09,Wunderground v.1.15,2013-05-11 10:19:00,
2013-05-11 06:25:00,42.3,41.8,29.92,NW,321,1.0,9.0,98,0.00,,,0.09,Wunderground v.1.15,2013-05-11 10:25:00,
2013-05-11 06:31:00,42.3,41.8,29.93,NNW,333,1.0,2.0,98,0.00,,,0.09,Wunderground v.1.15,2013-05-11 10:31:00,
2013-05-11 06:37:00,42.3,41.8,29.93,NNE,22,1.0,3.0,98,0.00,,,0.09,Wunderground v.1.15,2013-05-11 10:37:00,
2013-05-11 06:42:00,42.3,41.8,29.93,WNW,289,1.0,3.0,98,0.00,,,0.10,Wunderground v.1.15,2013-05-11 10:42:00,
2013-05-11 06:47:00,42.3,41.8,29.93,NW,323,1.0,5.0,98,0.00,,,0.10,Wunderground v.1.15,2013-05-11 10:47:00,
2013-05-11 06:53:00,42.3,41.8,29.92,NNW,344,1.0,3.0,98,0.00,,,0.10,Wunderground v.1.15,2013-05-11 10:53:00,
2013-05-11 06:59:00,42.3,41.8,29.93,NW,312,1.0,2.0,98,0.00,,,0.10,Wunderground v.1.15,2013-05-11 10:59:00,
2013-05-11 07:05:00,42.3,41.8,29.93,NNW,329,2.0,9.0,98,0.00,,,0.10,Wunderground v.1.15,2013-05-11 11:05:00,
2013-05-11 07:11:00,42.3,41.8,29.93,WNW,289,1.0,9.0,98,0.00,,,0.10,Wunderground v.1.15,2013-05-11 11:11:00,
2013-05-11 07:17:00,42.3,41.8,29.92,NW,308,1.0,9.0,98,0.00,,,0.10,Wunderground v.1.15,2013-05-11 11:17:00,
2013-05-11 07:23:00,42.3,41.8,29.92,WSW,256,1.0,9.0,98,0.00,,,0.10,Wunderground v.1.15,2013-05-11 11:23:00,
2013-05-11 07:29:00,42.3,41.8,29.92,NW,310,1.0,1.0,98,0.00,,,0.10,Wunderground v.1.15,2013-05-11 11:29:00,
2013-05-11 07:35:00,42.3,41.8,29.93,NW,310,1.0,9.0,98,0.00,,,0.10,Wunderground v.1.15,2013-05-11 11:35:00,
2013-05-11 07:41:00,42.3,41.8,29.93,NNW,327,2.0,9.0,98,0.00,,,0.10,Wunderground v.1.15,2013-05-11 11:41:00,
2013-05-11 07:47:00,42.2,41.7,29.93,WSW,246,2.0,9.0,98,0.00,,,0.10,Wunderground v.1.15,2013-05-11 11:47:00,
2013-05-11 07:52:00,42.3,41.8,29.93,West,263,1.0,9.0,98,0.00,,,0.10,Wunderground v.1.15,2013-05-11 11:52:00,
2013-05-11 07:58:00,42.3,41.8,29.93,West,279,1.0,9.0,98,0.00,,,0.10,Wunderground v.1.15,2013-05-11 11:58:00,
2013-05-11 08:04:00,42.3,41.8,29.93,WSW,249,2.0,9.0,98,0.00,,,0.10,Wunderground v.1.15,2013-05-11 12:04:00,
2013-05-11 08:10:00,42.3,41.8,29.93,WNW,303,2.0,9.0,98,0.00,,,0.10,Wunderground v.1.15,2013-05-11 12:10:00,
2013-05-11 08:16:00,42.4,41.9,29.93,NW,306,1.0,9.0,98,0.00,,,0.10,Wunderground v.1.15,2013-05-11 12:16:00,
2013-05-11 08:21:00,42.5,42.0,29.93,NNW,328,1.0,9.0,98,0.00,,,0.10,Wunderground v.1.15,2013-05-11 12:21:00,
2013-05-11 08:27:00,42.5,42.0,29.93,WNW,284,1.0,9.0,98,0.00,,,0.10,Wunderground v.1.15,2013-05-11 12:27:00,
2013-05-11 08:33:00,42.5,42.0,29.93,WNW,290,1.0,9.0,98,0.00,,,0.10,Wunderground v.1.15,2013-05-11 12:33:00,
2013-05-11 08:39:00,42.6,42.1,29.93,NW,317,1.0,1.0,98,0.00,,,0.10,Wunderground v.1.15,2013-05-11 12:39:00,
2013-05-11 08:45:00,42.6,42.1,29.92,North,349,2.0,9.0,98,0.00,,,0.10,Wunderground v.1.15,2013-05-11 12:45:00,
2013-05-11 08:50:00,42.7,42.2,29.92,NW,309,2.0,9.0,98,0.00,,,0.10,Wunderground v.1.15,2013-05-11 12:50:00,
2013-05-11 08:56:00,42.8,42.3,29.92,NW,311,2.0,9.0,98,0.00,,,0.10,Wunderground v.1.15,2013-05-11 12:56:00,
2013-05-11 09:02:00,42.8,42.3,29.92,West,271,1.0,2.0,98,0.00,,,0.10,Wunderground v.1.15,2013-05-11 13:02:00,
2013-05-11 09:07:00,42.9,42.4,29.92,West,269,1.0,4.0,98,0.00,,,0.10,Wunderground v.1.15,2013-05-11 13:07:00,
2013-05-11 09:13:00,43.0,42.5,29.92,WNW,301,1.0,2.0,98,0.00,,,0.10,Wunderground v.1.15,2013-05-11 13:13:00,
2013-05-11 09:19:00,43.0,42.5,29.93,NW,315,2.0,3.0,98,0.00,,,0.10,Wunderground v.1.15,2013-05-11 13:19:00,
2013-05-11 09:24:00,42.9,42.4,29.93,West,265,2.0,3.0,98,0.00,,,0.10,Wunderground v.1.15,2013-05-11 13:24:00,
2013-05-11 09:30:00,43.0,42.5,29.93,West,277,2.0,2.0,98,0.00,,,0.10,Wunderground v.1.15,2013-05-11 13:30:00,
2013-05-11 09:36:00,43.1,42.6,29.93,West,267,2.0,4.0,98,0.00,,,0.10,Wunderground v.1.15,2013-05-11 13:36:00,
2013-05-11 09:42:00,43.1,42.6,29.93,NNW,334,1.0,2.0,98,0.00,,,0.10,Wunderground v.1.15,2013-05-11 13:42:00,
2013-05-11 09:48:00,43.3,42.8,29.93,NNW,332,1.0,4.0,98,0.00,,,0.10,Wunderground v.1.15,2013-05-11 13:48:00,
2013-05-11 09:53:00,43.3,42.8,29.93,West,271,1.0,4.0,98,0.00,,,0.10,Wunderground v.1.15,2013-05-11 13:53:00,
2013-05-11 09:59:00,43.2,42.7,29.93,SW,232,2.0,3.0,98,0.00,,,0.10,Wunderground v.1.15,2013-05-11 13:59:00,
2013-05-11 10:05:00,43.2,42.7,29.93,West,270,3.0,7.0,98,0.00,,,0.10,Wunderground v.1.15,2013-05-11 14:05:00,
2013-05-11 10:11:00,43.4,42.9,29.93,West,269,1.0,7.0,98,0.00,,,0.10,Wunderground v.1.15,2013-05-11 14:11:00,
2013-05-11 10:16:00,43.5,43.0,29.93,West,278,1.0,7.0,98,0.00,,,0.10,Wunderground v.1.15,2013-05-11 14:16:00,
2013-05-11 10:22:00,43.4,42.9,29.93,SW,225,2.0,7.0,98,0.00,,,0.10,Wunderground v.1.15,2013-05-11 14:22:00,
2013-05-11 10:28:00,43.3,42.8,29.93,NNE,15,2.0,7.0,98,0.00,,,0.10,Wunderground v.1.15,2013-05-11 14:28:00,
2013-05-11 10:34:00,43.3,42.8,29.93,West,279,2.0,7.0,98,0.00,,,0.10,Wunderground v.1.15,2013-05-11 14:34:00,
2013-05-11 10:40:00,43.3,42.8,29.93,NW,321,2.0,7.0,98,0.00,,,0.10,Wunderground v.1.15,2013-05-11 14:40:00,
2013-05-11 10:46:00,43.3,42.8,29.93,West,262,2.0,7.0,98,0.00,,,0.10,Wunderground v.1.15,2013-05-11 14:46:00,
2013-05-11 10:51:00,43.3,42.8,29.93,NW,306,2.0,7.0,98,0.00,,,0.10,Wunderground v.1.15,2013-05-11 14:51:00,
2013-05-11 10:57:00,43.6,43.1,29.93,West,277,2.0,7.0,98,0.00,,,0.10,Wunderground v.1.15,2013-05-11 14:57:00,
2013-05-11 11:03:00,43.5,43.0,29.93,NW,312,2.0,7.0,98,0.00,,,0.10,Wunderground v.1.15,2013-05-11 15:03:00,
2013-05-11 11:09:00,43.6,43.1,29.93,WNW,290,2.0,7.0,98,0.00,,,0.10,Wunderground v.1.15,2013-05-11 15:09:00,
2013-05-11 11:14:00,43.8,43.3,29.93,WSW,255,1.0,7.0,98,0.00,,,0.10,Wunderground v.1.15,2013-05-11 15:14:00,
2013-05-11 11:20:00,43.8,43.3,29.94,WNW,302,1.0,7.0,98,0.00,,,0.10,Wunderground v.1.15,2013-05-11 15:20:00,
2013-05-11 11:26:00,43.8,43.3,29.93,West,259,2.0,7.0,98,0.00,,,0.10,Wunderground v.1.15,2013-05-11 15:26:00,
2013-05-11 11:32:00,44.0,43.5,29.94,WSW,258,2.0,7.0,98,0.00,,,0.10,Wunderground v.1.15,2013-05-11 15:32:00,
2013-05-11 11:37:00,44.3,43.8,29.94,SW,228,3.0,7.0,98,0.00,,,0.10,Wunderground v.1.15,2013-05-11 15:37:00,
2013-05-11 11:43:00,44.4,43.9,29.94,West,259,3.0,7.0,98,0.00,,,0.10,Wunderground v.1.15,2013-05-11 15:43:00,
2013-05-11 11:49:00,44.4,43.9,29.94,SW,232,3.0,3.0,98,0.00,,,0.10,Wunderground v.1.15,2013-05-11 15:49:00,
2013-05-11 11:55:00,44.6,44.1,29.94,SW,232,2.0,7.0,98,0.00,,,0.10,Wunderground v.1.15,2013-05-11 15:55:00,
2013-05-11 12:00:00,44.7,44.2,29.94,SW,232,1.0,1.0,98,0.00,,,0.10,Wunderground v.1.15,2013-05-11 16:00:00,
2013-05-11 12:06:00,44.9,44.4,29.94,WSW,240,1.0,3.0,98,0.00,,,0.10,Wunderground v.1.15,2013-05-11 16:06:00,
2013-05-11 12:12:00,45.1,44.6,29.94,West,275,3.0,3.0,98,0.00,,,0.10,Wunderground v.1.15,2013-05-11 16:12:00,
2013-05-11 12:18:00,45.2,44.7,29.94,WSW,254,4.0,7.0,98,0.00,,,0.10,Wunderground v.1.15,2013-05-11 16:18:00,
2013-05-11 12:23:00,45.4,44.6,29.94,SW,223,4.0,5.0,97,0.00,,,0.10,Wunderground v.1.15,2013-05-11 16:23:00,
2013-05-11 12:29:00,45.6,44.8,29.94,WNW,290,3.0,3.0,97,0.00,,,0.10,Wunderground v.1.15,2013-05-11 16:29:00,
2013-05-11 12:35:00,45.7,44.9,29.94,NW,315,3.0,6.0,97,0.00,,,0.10,Wunderground v.1.15,2013-05-11 16:35:00,
2013-05-11 12:41:00,46.0,45.2,29.94,West,259,3.0,6.0,97,0.00,,,0.10,Wunderground v.1.15,2013-05-11 16:41:00,
2013-05-11 12:46:00,46.1,45.0,29.94,WNW,300,4.0,6.0,96,0.00,,,0.10,Wunderground v.1.15,2013-05-11 16:46:00,
2013-05-11 12:52:00,46.2,45.1,29.94,WSW,256,5.0,6.0,96,0.00,,,0.10,Wunderground v.1.15,2013-05-11 16:52:00,
2013-05-11 12:58:00,46.1,44.7,29.93,WSW,257,6.0,7.0,95,0.00,,,0.10,Wunderground v.1.15,2013-05-11 16:58:00,
2013-05-11 13:04:00,46.1,44.7,29.93,WSW,247,5.0,7.0,95,0.00,,,0.10,Wunderground v.1.15,2013-05-11 17:04:00,
2013-05-11 13:09:00,46.2,44.8,29.94,NW,319,4.0,4.0,95,0.00,,,0.10,Wunderground v.1.15,2013-05-11 17:09:00,
2013-05-11 13:15:00,46.3,44.7,29.93,West,265,3.0,7.0,94,0.00,,,0.10,Wunderground v.1.15,2013-05-11 17:15:00,
2013-05-11 13:21:00,46.3,44.7,29.93,WSW,248,3.0,7.0,94,0.00,,,0.10,Wunderground v.1.15,2013-05-11 17:21:00,
2013-05-11 13:27:00,46.5,44.9,29.93,WNW,290,2.0,7.0,94,0.00,,,0.10,Wunderground v.1.15,2013-05-11 17:27:00,
2013-05-11 13:33:00,46.7,45.1,29.93,SW,234,2.0,7.0,94,0.00,,,0.10,Wunderground v.1.15,2013-05-11 17:33:00,
2013-05-11 13:39:00,46.7,45.1,29.93,WSW,253,3.0,3.0,94,0.00,,,0.10,Wunderground v.1.15,2013-05-11 17:39:00,
2013-05-11 13:44:00,46.7,45.1,29.93,SW,227,4.0,7.0,94,0.00,,,0.10,Wunderground v.1.15,2013-05-11 17:44:00,
2013-05-11 13:50:00,46.8,45.2,29.93,WSW,258,2.0,7.0,94,0.00,,,0.10,Wunderground v.1.15,2013-05-11 17:50:00,
2013-05-11 13:56:00,46.9,45.3,29.93,WSW,240,2.0,7.0,94,0.00,,,0.10,Wunderground v.1.15,2013-05-11 17:56:00,
2013-05-11 14:02:00,47.2,45.6,29.93,West,269,3.0,7.0,94,0.00,,,0.10,Wunderground v.1.15,2013-05-11 18:02:00,
2013-05-11 14:07:00,47.3,45.7,29.93,WSW,244,3.0,7.0,94,0.00,,,0.10,Wunderground v.1.15,2013-05-11 18:07:00,
2013-05-11 14:13:00,47.4,45.5,29.93,West,261,2.0,7.0,93,0.00,,,0.10,Wunderground v.1.15,2013-05-11 18:13:00,
2013-05-11 14:19:00,47.5,45.6,29.93,WSW,254,2.0,2.0,93,0.00,,,0.10,Wunderground v.1.15,2013-05-11 18:19:00,
2013-05-11 14:25:00,47.7,45.8,29.93,SW,227,2.0,7.0,93,0.00,,,0.10,Wunderground v.1.15,2013-05-11 18:25:00,
2013-05-11 14:31:00,48.1,46.2,29.93,West,266,2.0,7.0,93,0.00,,,0.10,Wunderground v.1.15,2013-05-11 18:31:00,
2013-05-11 14:37:00,48.3,46.1,29.94,SSW,194,2.0,7.0,92,0.00,,,0.10,Wunderground v.1.15,2013-05-11 18:37:00,
2013-05-11 14:43:00,48.4,46.2,29.93,WSW,245,3.0,7.0,92,0.00,,,0.10,Wunderground v.1.15,2013-05-11 18:43:00,
2013-05-11 14:48:00,48.7,46.5,29.93,SSW,192,3.0,7.0,92,0.00,,,0.10,Wunderground v.1.15,2013-05-11 18:48:00,
2013-05-11 14:54:00,49.0,46.8,29.93,SSW,203,4.0,7.0,92,0.00,,,0.10,Wunderground v.1.15,2013-05-11 18:54:00,
2013-05-11 14:59:00,48.9,46.1,29.93,SW,231,4.0,4.0,90,0.00,,,0.10,Wunderground v.1.15,2013-05-11 18:59:00,
2013-05-11 15:05:00,48.9,46.4,29.93,SSW,207,4.0,6.0,91,0.00,,,0.10,Wunderground v.1.15,2013-05-11 19:05:00,
2013-05-11 15:11:00,49.1,46.6,29.92,SSW,212,3.0,5.0,91,0.00,,,0.10,Wunderground v.1.15,2013-05-11 19:11:00,
2013-05-11 15:17:00,49.2,46.7,29.92,South,185,3.0,5.0,91,0.00,,,0.10,Wunderground v.1.15,2013-05-11 19:17:00,
2013-05-11 15:23:00,49.4,46.9,29.92,SSW,202,3.0,5.0,91,0.00,,,0.10,Wunderground v.1.15,2013-05-11 19:23:00,
2013-05-11 15:29:00,49.5,47.0,29.92,WSW,250,4.0,4.0,91,0.00,,,0.10,Wunderground v.1.15,2013-05-11 19:29:00,
2013-05-11 15:34:00,49.5,46.7,29.92,SSW,198,3.0,6.0,90,0.00,,,0.10,Wunderground v.1.15,2013-05-11 19:34:00,
2013-05-11 15:40:00,49.5,47.0,29.92,SW,226,4.0,4.0,91,0.00,,,0.10,Wunderground v.1.15,2013-05-11 19:40:00,
2013-05-11 15:46:00,49.7,47.2,29.92,SW,214,3.0,5.0,91,0.00,,,0.10,Wunderground v.1.15,2013-05-11 19:46:00,
2013-05-11 15:52:00,49.6,46.8,29.92,WSW,240,3.0,5.0,90,0.00,,,0.10,Wunderground v.1.15,2013-05-11 19:52:00,
2013-05-11 15:58:00,49.6,46.8,29.91,SW,219,3.0,5.0,90,0.00,,,0.10,Wunderground v.1.15,2013-05-11 19:58:00,
2013-05-11 16:04:00,49.8,47.3,29.92,SSW,201,3.0,8.0,91,0.00,,,0.10,Wunderground v.1.15,2013-05-11 20:04:00,
2013-05-11 16:09:00,49.8,47.0,29.92,SW,225,4.0,8.0,90,0.00,,,0.10,Wunderground v.1.15,2013-05-11 20:09:00,
2013-05-11 16:15:00,49.9,47.1,29.92,SW,227,4.0,8.0,90,0.00,,,0.10,Wunderground v.1.15,2013-05-11 20:15:00,
2013-05-11 16:21:00,49.9,46.8,29.92,WSW,241,5.0,8.0,89,0.00,,,0.10,Wunderground v.1.15,2013-05-11 20:21:00,
2013-05-11 16:27:00,50.0,47.2,29.91,WSW,245,5.0,8.0,90,0.00,,,0.10,Wunderground v.1.15,2013-05-11 20:27:00,
2013-05-11 16:33:00,50.0,47.2,29.91,West,262,4.0,8.0,90,0.00,,,0.10,Wunderground v.1.15,2013-05-11 20:33:00,
2013-05-11 16:39:00,50.1,47.3,29.91,SSW,196,4.0,8.0,90,0.00,,,0.10,Wunderground v.1.15,2013-05-11 20:39:00,
2013-05-11 16:45:00,50.1,47.3,29.90,SSW,205,4.0,8.0,90,0.00,,,0.10,Wunderground v.1.15,2013-05-11 20:45:00,
2013-05-11 16:51:00,50.5,47.7,29.90,SSW,203,3.0,8.0,90,0.00,,,0.10,Wunderground v.1.15,2013-05-11 20:51:00,
2013-05-11 16:56:00,50.6,47.5,29.90,SW,215,3.0,8.0,89,0.00,,,0.10,Wunderground v.1.15,2013-05-11 20:56:00,
2013-05-11 17:02:00,50.5,47.4,29.90,SW,228,3.0,8.0,89,0.00,,,0.10,Wunderground v.1.15,2013-05-11 21:02:00,
2013-05-11 17:08:00,50.6,47.5,29.90,SSW,207,3.0,8.0,89,0.00,,,0.10,Wunderground v.1.15,2013-05-11 21:08:00,
2013-05-11 17:13:00,50.6,47.5,29.91,South,184,3.0,8.0,89,0.00,,,0.10,Wunderground v.1.15,2013-05-11 21:13:00,
2013-05-11 17:19:00,50.7,47.3,29.91,SW,221,3.0,8.0,88,0.00,,,0.10,Wunderground v.1.15,2013-05-11 21:19:00,
2013-05-11 17:25:00,50.7,47.6,29.91,South,186,3.0,8.0,89,0.00,,,0.10,Wunderground v.1.15,2013-05-11 21:25:00,
2013-05-11 17:31:00,50.8,47.7,29.91,SSW,199,3.0,8.0,89,0.00,,,0.10,Wunderground v.1.15,2013-05-11 21:31:00,
2013-05-11 17:37:00,50.9,47.5,29.91,South,186,3.0,8.0,88,0.00,,,0.10,Wunderground v.1.15,2013-05-11 21:37:00,
2013-05-11 17:42:00,51.0,47.6,29.91,SW,215,4.0,8.0,88,0.00,,,0.10,Wunderground v.1.15,2013-05-11 21:42:00,
2013-05-11 17:48:00,51.1,47.7,29.91,SSW,201,4.0,8.0,88,0.00,,,0.10,Wunderground v.1.15,2013-05-11 21:48:00,
2013-05-11 17:54:00,51.2,47.8,29.91,SSW,213,3.0,8.0,88,0.00,,,0.10,Wunderground v.1.15,2013-05-11 21:54:00,
2013-05-11 17:59:00,51.2,47.8,29.91,SW,215,3.0,3.0,88,0.00,,,0.10,Wunderground v.1.15,2013-05-11 21:59:00,
2013-05-11 18:05:00,51.3,47.9,29.91,South,184,3.0,5.0,88,0.00,,,0.10,Wunderground v.1.15,2013-05-11 22:05:00,
2013-05-11 18:11:00,51.4,48.0,29.90,South,187,3.0,5.0,88,0.00,,,0.10,Wunderground v.1.15,2013-05-11 22:11:00,
2013-05-11 18:17:00,51.6,48.2,29.90,SW,224,3.0,5.0,88,0.00,,,0.10,Wunderground v.1.15,2013-05-11 22:17:00,
2013-05-11 18:23:00,52.1,48.7,29.89,WSW,244,3.0,3.0,88,0.00,,,0.10,Wunderground v.1.15,2013-05-11 22:23:00,
2013-05-11 18:28:00,52.4,48.6,29.89,SW,226,4.0,7.0,87,0.00,,,0.10,Wunderground v.1.15,2013-05-11 22:28:00,
2013-05-11 18:34:00,52.7,48.6,29.89,SW,214,4.0,5.0,86,0.00,,,0.10,Wunderground v.1.15,2013-05-11 22:34:00,
2013-05-11 18:40:00,52.6,48.2,29.89,SW,221,5.0,8.0,85,0.00,,,0.10,Wunderground v.1.15,2013-05-11 22:40:00,
2013-05-11 18:46:00,52.8,48.4,29.89,SSW,209,5.0,8.0,85,0.00,,,0.10,Wunderground v.1.15,2013-05-11 22:46:00,
2013-05-11 18:52:00,52.7,48.0,29.89,WSW,238,5.0,9.0,84,0.00,,,0.10,Wunderground v.1.15,2013-05-11 22:52:00,
2013-05-11 18:57:00,52.8,48.1,29.89,South,189,6.0,10.0,84,0.00,,,0.10,Wunderground v.1.15,2013-05-11 22:57:00,
2013-05-11 19:03:00,53.1,48.4,29.89,SSW,194,5.0,11.0,84,0.00,,,0.10,Wunderground v.1.15,2013-05-11 23:03:00,
2013-05-11 19:09:00,53.1,48.1,29.89,South,184,4.0,4.0,83,0.00,,,0.10,Wunderground v.1.15,2013-05-11 23:09:00,
2013-05-11 19:15:00,53.0,48.0,29.89,SW,221,4.0,11.0,83,0.00,,,0.10,Wunderground v.1.15,2013-05-11 23:15:00,
2013-05-11 19:20:00,53.2,48.2,29.89,South,180,4.0,11.0,83,0.00,,,0.10,Wunderground v.1.15,2013-05-11 23:20:00,
2013-05-11 19:26:00,53.3,47.6,29.89,WSW,244,5.0,14.0,81,0.00,,,0.10,Wunderground v.1.15,2013-05-11 23:26:00,
2013-05-11 19:32:00,53.3,47.9,29.89,SW,225,6.0,11.0,82,0.00,,,0.10,Wunderground v.1.15,2013-05-11 23:32:00,
2013-05-11 19:38:00,53.1,47.7,29.90,SW,236,5.0,11.0,82,0.00,,,0.10,Wunderground v.1.15,2013-05-11 23:38:00,
2013-05-11 19:43:00,52.9,47.9,29.90,SSW,195,4.0,11.0,83,0.00,,,0.10,Wunderground v.1.15,2013-05-11 23:43:00,
2013-05-11 19:49:00,52.7,47.7,29.90,SSE,161,3.0,11.0,83,0.00,,,0.10,Wunderground v.1.15,2013-05-11 23:49:00,
2013-05-11 19:55:00,52.4,47.7,29.90,SSW,209,4.0,11.0,84,0.00,,,0.10,Wunderground v.1.15,2013-05-11 23:55:00,
2013-05-11 20:01:00,52.2,47.5,29.90,SSW,192,3.0,11.0,84,0.00,,,0.10,Wunderground v.1.15,2013-05-12 00:01:00,
2013-05-11 20:08:00,52.1,47.4,29.90,SSW,196,4.0,11.0,84,0.00,,,0.10,Wunderground v.1.15,2013-05-12 00:08:00,
2013-05-11 20:14:00,51.9,47.5,29.90,South,180,3.0,11.0,85,0.00,,,0.10,Wunderground v.1.15,2013-05-12 00:14:00,
2013-05-11 20:19:00,51.9,47.5,29.90,South,190,3.0,11.0,85,0.00,,,0.10,Wunderground v.1.15,2013-05-12 00:19:00,
2013-05-11 20:25:00,51.8,47.4,29.90,SSW,205,3.0,11.0,85,0.00,,,0.10,Wunderground v.1.15,2013-05-12 00:25:00,
2013-05-11 20:31:00,51.8,47.4,29.90,WSW,248,4.0,11.0,85,0.00,,,0.10,Wunderground v.1.15,2013-05-12 00:31:00,
2013-05-11 20:37:00,51.8,47.4,29.89,South,191,3.0,11.0,85,0.00,,,0.10,Wunderground v.1.15,2013-05-12 00:37:00,
2013-05-11 20:43:00,51.8,47.4,29.89,SSW,198,2.0,11.0,85,0.00,,,0.10,Wunderground v.1.15,2013-05-12 00:43:00,
2013-05-11 20:49:00,51.7,47.3,29.89,SSW,192,3.0,11.0,85,0.00,,,0.10,Wunderground v.1.15,2013-05-12 00:49:00,
2013-05-11 20:55:00,51.7,47.6,29.90,SSW,213,4.0,11.0,86,0.00,,,0.10,Wunderground v.1.15,2013-05-12 00:55:00,
2013-05-11 21:00:00,51.7,47.6,29.90,South,180,3.0,7.0,86,0.00,,,0.10,Wunderground v.1.15,2013-05-12 01:00:00,
2013-05-11 21:05:00,51.7,47.6,29.90,SSW,197,4.0,7.0,86,0.00,,,0.10,Wunderground v.1.15,2013-05-12 01:05:00,
2013-05-11 21:11:00,51.7,47.6,29.89,SSW,211,5.0,6.0,86,0.00,,,0.10,Wunderground v.1.15,2013-05-12 01:11:00,
2013-05-11 21:17:00,51.7,47.6,29.89,SSW,207,5.0,7.0,86,0.00,,,0.10,Wunderground v.1.15,2013-05-12 01:17:00,
2013-05-11 21:23:00,51.6,47.9,29.89,South,186,4.0,4.0,87,0.00,,,0.10,Wunderground v.1.15,2013-05-12 01:23:00,
2013-05-11 21:28:00,51.3,47.9,29.90,SW,215,4.0,7.0,88,0.00,,,0.10,Wunderground v.1.15,2013-05-12 01:28:00,
2013-05-11 21:34:00,51.0,48.2,29.89,SSW,205,4.0,6.0,90,0.00,,,0.10,Wunderground v.1.15,2013-05-12 01:34:00,
2013-05-11 21:40:00,50.8,48.0,29.89,South,188,4.0,4.0,90,0.00,,,0.10,Wunderground v.1.15,2013-05-12 01:40:00,
2013-05-11 21:46:00,50.6,48.1,29.89,SW,227,3.0,5.0,91,0.00,,,0.10,Wunderground v.1.15,2013-05-12 01:46:00,
2013-05-11 21:52:00,50.5,48.0,29.89,South,190,3.0,3.0,91,0.00,,,0.10,Wunderground v.1.15,2013-05-12 01:52:00,
2013-05-11 21:58:00,50.2,47.7,29.89,SSW,205,2.0,5.0,91,0.00,,,0.10,Wunderground v.1.15,2013-05-12 01:58:00,
2013-05-11 22:04:00,50.0,47.5,29.89,SW,219,2.0,7.0,91,0.00,,,0.10,Wunderground v.1.15,2013-05-12 02:04:00,
2013-05-11 22:10:00,49.9,47.7,29.90,West,259,3.0,3.0,92,0.00,,,0.10,Wunderground v.1.15,2013-05-12 02:10:00,
2013-05-11 22:15:00,50.0,47.8,29.89,SSW,210,3.0,7.0,92,0.00,,,0.10,Wunderground v.1.15,2013-05-12 02:15:00,
2013-05-11 22:21:00,50.1,47.9,29.91,WSW,252,3.0,11.0,92,0.00,,,0.12,Wunderground v.1.15,2013-05-12 02:21:00,
2013-05-11 22:27:00,49.8,47.3,29.93,SW,227,6.0,11.0,91,0.13,,,0.14,Wunderground v.1.15,2013-05-12 02:27:00,
2013-05-11 22:33:00,48.5,46.0,29.93,NNW,327,9.0,14.0,91,0.11,,,0.15,Wunderground v.1.15,2013-05-12 02:33:00,
2013-05-11 22:39:00,47.9,45.7,29.93,WSW,244,7.0,14.0,92,0.08,,,0.16,Wunderground v.1.15,2013-05-12 02:39:00,
2013-05-11 22:45:00,47.2,45.0,29.93,WNW,292,8.0,11.0,92,0.06,,,0.16,Wunderground v.1.15,2013-05-12 02:45:00,
2013-05-11 22:50:00,46.6,44.4,29.94,WNW,286,8.0,8.0,92,0.04,,,0.16,Wunderground v.1.15,2013-05-12 02:50:00,
2013-05-11 22:56:00,46.3,44.4,29.94,WNW,292,7.0,10.0,93,0.00,,,0.16,Wunderground v.1.15,2013-05-12 02:56:00,
2013-05-11 23:02:00,46.2,44.3,29.94,West,261,5.0,7.0,93,0.00,,,0.16,Wunderground v.1.15,2013-05-12 03:02:00,
2013-05-11 23:08:00,46.2,44.6,29.95,WSW,257,7.0,15.0,94,0.00,,,0.16,Wunderground v.1.15,2013-05-12 03:08:00,
2013-05-11 23:14:00,46.1,44.5,29.95,WNW,298,7.0,9.0,94,0.00,,,0.16,Wunderground v.1.15,2013-05-12 03:14:00,
2013-05-11 23:20:00,45.9,44.3,29.95,WNW,294,5.0,7.0,94,0.00,,,0.16,Wunderground v.1.15,2013-05-12 03:20:00,
2013-05-11 23:26:00,45.8,44.2,29.96,East,83,6.0,17.0,94,0.00,,,0.16,Wunderground v.1.15,2013-05-12 03:26:00,
2013-05-11 23:31:00,45.5,43.6,29.96,West,267,6.0,7.0,93,0.00,,,0.17,Wunderground v.1.15,2013-05-12 03:31:00,
2013-05-11 23:37:00,44.6,42.4,29.96,WSW,251,6.0,9.0,92,0.00,,,0.17,Wunderground v.1.15,2013-05-12 03:37:00,
2013-05-11 23:43:00,43.8,41.6,29.96,NE,50,6.0,14.0,92,0.00,,,0.17,Wunderground v.1.15,2013-05-12 03:43:00,
2013-05-11 23:48:00,43.3,41.1,29.97,North,5,6.0,14.0,92,0.00,,,0.17,Wunderground v.1.15,2013-05-12 03:48:00,
2013-05-11 23:54:00,42.9,40.7,29.98,NNW,347,6.0,9.0,92,0.00,,,0.17,Wunderground v.1.15,2013-05-12 03:54:00,